Time;durP1;ratioP1;P1;durP2;ratioP2;P2;SDS_P1;SDS_P2;PMS_P1;PMS_P2;Temp;Humidity;BMP_temperature;BMP_pressure;BME280_temperature;BME280_humidity;BME280_pressure;Samples;Min_cycle;Max_cycle;Signal;HPM_P1;HPM_P2
2023/12/12 00:00:24;;;;;;;;;42.67;30.00;;;;;12.12;100.00;100583.91;5076976;28;45511;-49
2023/12/12 00:02:49;;;;;;;;;34.33;22.00;;;;;12.11;100.00;100584.94;5077266;28;45374;-51
2023/12/12 00:05:15;;;;;;;;;30.67;24.00;;;;;12.08;100.00;100576.41;5077605;27;45335;-47
2023/12/12 00:07:40;;;;;;;;;31.67;28.00;;;;;12.10;100.00;100566.44;5092861;27;46086;-50
2023/12/12 00:10:06;;;;;;;;;39.67;28.00;;;;;12.11;100.00;100566.25;5077365;28;45397;-51
2023/12/12 00:12:32;;;;;;;;;25.00;23.67;;;;;12.13;100.00;100579.41;5077274;27;45378;-52
2023/12/12 00:14:57;;;;;;;;;38.33;27.67;;;;;12.12;100.00;100583.91;5077387;27;45352;-48
2023/12/12 00:17:23;;;;;;;;;27.67;25.33;;;;;12.12;100.00;100578.59;5076970;28;45452;-52
2023/12/12 00:19:48;;;;;;;;;34.00;24.00;;;;;12.14;100.00;100581.13;5076953;28;45501;-47
2023/12/12 00:22:13;;;;;;;;;42.00;32.67;;;;;12.14;100.00;100578.44;5077150;28;45347;-49
2023/12/12 00:24:39;;;;;;;;;31.00;26.67;;;;;12.18;100.00;100571.78;5077221;28;45373;-49
2023/12/12 00:27:04;;;;;;;;;41.00;31.67;;;;;12.17;100.00;100568.25;5076575;28;45438;-49
2023/12/12 00:29:30;;;;;;;;;31.67;28.67;;;;;12.17;100.00;100549.59;5076397;28;45458;-50
2023/12/12 00:31:55;;;;;;;;;28.00;24.00;;;;;12.19;100.00;100552.94;5075505;28;45500;-49
2023/12/12 00:34:21;;;;;;;;;30.67;22.33;;;;;12.17;100.00;100554.09;5077174;28;45401;-50
2023/12/12 00:36:46;;;;;;;;;35.67;27.33;;;;;12.21;100.00;100553.63;5076694;28;46379;-50
2023/12/12 00:39:11;;;;;;;;;30.00;24.33;;;;;12.17;100.00;100544.25;5076497;28;47779;-50
2023/12/12 00:41:37;;;;;;;;;36.67;27.00;;;;;12.25;100.00;100551.47;5076873;28;45389;-49
2023/12/12 00:44:02;;;;;;;;;36.33;25.33;;;;;12.20;100.00;100540.44;5076968;27;45516;-49
2023/12/12 00:46:28;;;;;;;;;29.00;25.67;;;;;12.25;100.00;100546.13;5076420;28;45573;-47
2023/12/12 00:48:53;;;;;;;;;20.33;14.33;;;;;12.30;100.00;100534.97;5076466;27;45435;-51
2023/12/12 00:51:18;;;;;;;;;30.33;23.00;;;;;12.32;100.00;100533.00;5076540;28;45224;-49
2023/12/12 00:53:44;;;;;;;;;34.33;29.67;;;;;12.29;100.00;100531.47;5077052;28;45249;-49
2023/12/12 00:56:09;;;;;;;;;32.00;28.67;;;;;12.29;100.00;100531.47;5076268;28;45303;-48
2023/12/12 00:58:34;;;;;;;;;27.00;25.33;;;;;12.31;100.00;100526.00;5076594;27;45353;-49
2023/12/12 01:01:00;;;;;;;;;29.00;23.33;;;;;12.30;100.00;100522.47;5076466;28;45520;-49
2023/12/12 01:03:25;;;;;;;;;34.33;24.00;;;;;12.25;100.00;100508.78;5076587;28;45398;-49
2023/12/12 01:05:51;;;;;;;;;33.33;27.67;;;;;12.36;100.00;100521.00;5076391;28;46004;-49
2023/12/12 01:08:16;;;;;;;;;33.33;28.33;;;;;12.36;100.00;100515.66;5076754;28;45485;-50
2023/12/12 01:10:41;;;;;;;;;37.33;24.67;;;;;12.36;100.00;100515.66;5080216;28;45207;-49
2023/12/12 01:13:07;;;;;;;;;31.67;25.00;;;;;12.36;100.00;100516.50;5080178;27;45410;-45
2023/12/12 01:15:32;;;;;;;;;33.33;24.33;;;;;12.37;100.00;100517.31;5079842;27;47510;-48
2023/12/12 01:17:58;;;;;;;;;31.00;25.00;;;;;12.36;100.00;100502.31;5079859;27;45530;-49
2023/12/12 01:20:23;;;;;;;;;27.67;24.67;;;;;12.39;100.00;100502.84;5079913;27;45468;-48
2023/12/12 01:22:48;;;;;;;;;28.33;21.33;;;;;12.42;100.00;100504.31;5080152;27;45304;-49
2023/12/12 01:25:14;;;;;;;;;30.00;27.33;;;;;12.44;100.00;100502.34;5079604;28;47071;-51
2023/12/12 01:27:39;;;;;;;;;25.67;22.33;;;;;12.45;100.00;100490.66;5079688;27;45366;-49
2023/12/12 01:30:05;;;;;;;;;21.67;15.00;;;;;12.47;100.00;100497.50;5078370;27;45576;-46
2023/12/12 01:32:31;;;;;;;;;30.00;21.00;;;;;12.49;100.00;100494.66;5079784;27;45374;-48
2023/12/12 01:34:56;;;;;;;;;30.33;26.67;;;;;12.48;100.00;100483.16;5079232;28;48368;-48
2023/12/12 01:37:21;;;;;;;;;28.67;24.67;;;;;12.54;100.00;100491.50;5095406;27;45441;-51
2023/12/12 01:39:47;;;;;;;;;21.00;16.67;;;;;12.54;100.00;100481.66;5079776;27;45510;-50
2023/12/12 01:42:12;;;;;;;;;28.33;23.00;;;;;12.55;100.00;100477.97;5079861;27;45320;-48
2023/12/12 01:44:37;;;;;;;;;30.33;23.67;;;;;12.53;100.00;100476.50;5095076;27;46750;-49
2023/12/12 01:47:03;;;;;;;;;26.00;20.00;;;;;12.54;100.00;100486.16;5079062;27;49324;-47
2023/12/12 01:49:28;;;;;;;;;32.67;27.33;;;;;12.56;100.00;100487.69;5079538;28;45505;-48
2023/12/12 01:51:54;;;;;;;;;27.67;24.33;;;;;12.53;100.00;100481.84;5079582;28;45465;-53
2023/12/12 01:54:20;;;;;;;;;29.00;23.67;;;;;12.52;100.00;100482.84;5079283;27;46133;-48
2023/12/12 01:56:49;;;;;;;;;25.33;23.33;;;;;12.54;100.00;100497.66;5079241;28;45322;-49
2023/12/12 01:59:16;;;;;;;;;24.33;20.33;;;;;12.51;100.00;100487.31;5095291;27;45435;-49
2023/12/12 02:01:42;;;;;;;;;31.00;21.67;;;;;12.52;100.00;100489.00;5079376;28;45948;-49
2023/12/12 02:04:08;;;;;;;;;28.67;22.33;;;;;12.52;100.00;100488.19;5078881;28;46160;-49
2023/12/12 02:06:33;;;;;;;;;27.00;22.33;;;;;12.52;100.00;100470.34;5060721;28;45379;-48
2023/12/12 02:08:59;;;;;;;;;21.67;20.33;;;;;12.55;100.00;100475.31;5079162;28;45314;-48
2023/12/12 02:11:24;;;;;;;;;23.33;20.00;;;;;12.57;100.00;100475.16;5078836;27;45402;-48
2023/12/12 02:13:50;;;;;;;;;35.67;27.00;;;;;12.58;100.00;100482.16;5078973;27;45397;-46
2023/12/12 02:16:17;;;;;;;;;25.00;21.67;;;;;12.51;100.00;100468.63;5078746;27;45311;-47
2023/12/12 02:18:42;;;;;;;;;19.67;14.33;;;;;12.55;100.00;100474.50;5079018;28;45436;-47
2023/12/12 02:21:07;;;;;;;;;31.67;23.00;;;;;12.52;100.00;100451.66;5078519;27;45326;-48
2023/12/12 02:23:33;;;;;;;;;24.33;21.00;;;;;12.54;100.00;100446.16;5078967;27;46182;-49
2023/12/12 02:25:59;;;;;;;;;26.67;21.67;;;;;12.55;100.00;100439.81;5078749;28;45376;-46
2023/12/12 02:28:26;;;;;;;;;18.33;13.67;;;;;12.55;100.00;100439.81;5078844;28;45454;-46
2023/12/12 02:30:51;;;;;;;;;31.00;22.00;;;;;12.52;100.00;100440.16;5078904;28;45358;-49
2023/12/12 02:33:17;;;;;;;;;30.00;21.00;;;;;12.49;100.00;100442.13;5078392;27;45603;-47
2023/12/12 02:35:42;;;;;;;;;25.00;18.00;;;;;12.49;100.00;100446.66;5078700;28;45362;-51
2023/12/12 02:38:08;;;;;;;;;29.33;22.00;;;;;12.48;100.00;100437.81;5078926;28;45303;-47
2023/12/12 02:40:33;;;;;;;;;22.67;19.33;;;;;12.43;100.00;100429.47;5078686;28;45447;-53
2023/12/12 02:42:59;;;;;;;;;27.00;21.00;;;;;12.48;100.00;100439.66;5078451;27;46195;-52
2023/12/12 02:45:24;;;;;;;;;19.33;17.33;;;;;12.48;100.00;100426.31;5078453;27;45354;-52
2023/12/12 02:47:50;;;;;;;;;20.00;12.67;;;;;12.41;100.00;100403.97;5078349;28;45350;-53
2023/12/12 02:50:16;;;;;;;;;15.33;10.67;;;;;12.51;100.00;100409.94;5078674;28;45502;-53
2023/12/12 02:52:42;;;;;;;;;21.00;17.33;;;;;12.52;100.00;100408.97;5078253;28;46314;-52
2023/12/12 02:55:07;;;;;;;;;27.00;18.33;;;;;12.46;100.00;100391.78;5078116;28;45391;-54
2023/12/12 02:57:33;;;;;;;;;18.00;12.33;;;;;12.47;100.00;100390.81;5078498;27;45437;-51
2023/12/12 02:59:58;;;;;;;;;16.00;14.67;;;;;12.49;100.00;100380.78;5077429;27;45253;-53
2023/12/12 03:02:23;;;;;;;;;21.33;14.67;;;;;12.49;100.00;100372.78;5077959;27;46285;-53
2023/12/12 03:04:49;;;;;;;;;22.00;13.00;;;;;12.52;100.00;100376.94;5077989;28;45550;-52
2023/12/12 03:07:14;;;;;;;;;18.00;15.00;;;;;12.52;100.00;100374.28;5078263;27;45401;-52
2023/12/12 03:09:39;;;;;;;;;20.00;16.33;;;;;12.49;100.00;100374.63;5078189;27;45312;-52
2023/12/12 03:12:05;;;;;;;;;14.00;13.00;;;;;12.43;100.00;100364.59;5078097;28;45402;-53
2023/12/12 03:14:31;;;;;;;;;13.67;13.00;;;;;12.45;100.00;100378.63;5077911;28;45600;-52
2023/12/12 03:16:57;;;;;;;;;14.33;14.00;;;;;12.43;100.00;100377.94;5078016;28;45709;-53
2023/12/12 03:19:23;;;;;;;;;16.67;12.67;;;;;12.42;100.00;100374.44;5078423;27;45396;-50
2023/12/12 03:21:49;;;;;;;;;16.33;14.00;;;;;12.40;100.00;100372.97;5077756;28;45346;-52
2023/12/12 03:24:16;;;;;;;;;9.67;9.67;;;;;12.46;100.00;100366.94;5078025;28;45259;-51
2023/12/12 03:26:41;;;;;;;;;12.00;12.00;;;;;12.46;100.00;100353.59;5077954;28;45325;-48
2023/12/12 03:29:06;;;;;;;;;15.33;12.33;;;;;12.48;100.00;100349.78;5077700;27;45560;-53
2023/12/12 03:31:31;;;;;;;;;15.00;9.33;;;;;12.42;100.00;100338.94;5077433;27;45443;-49
2023/12/12 03:33:57;;;;;;;;;16.33;13.33;;;;;12.36;100.00;100329.78;5076998;28;45429;-48
2023/12/12 03:36:22;;;;;;;;;14.33;10.33;;;;;12.06;100.00;100277.97;5093611;27;45430;-49
2023/12/12 03:38:48;;;;;;;;;14.67;12.00;;;;;12.33;100.00;100327.44;5077934;28;45300;-50
2023/12/12 03:41:13;;;;;;;;;13.00;9.00;;;;;12.33;100.00;100327.44;5076592;27;46224;-51
2023/12/12 03:43:38;;;;;;;;;15.67;11.00;;;;;12.32;100.00;100314.28;5076084;28;47518;-48
2023/12/12 03:46:04;;;;;;;;;11.67;10.33;;;;;12.27;100.00;100309.44;5093140;27;45456;-48
2023/12/12 03:48:30;;;;;;;;;14.00;13.00;;;;;12.27;100.00;100308.63;5076823;28;45287;-50
2023/12/12 03:50:55;;;;;;;;;15.00;11.00;;;;;12.30;100.00;100314.44;5077148;28;49035;-50
2023/12/12 03:53:20;;;;;;;;;13.00;11.33;;;;;12.29;100.00;100310.09;5077538;28;45334;-50
2023/12/12 03:55:46;;;;;;;;;10.33;9.00;;;;;12.30;100.00;100302.94;5077635;28;45345;-49
2023/12/12 03:58:11;;;;;;;;;12.33;9.00;;;;;12.31;100.00;100296.63;5077693;28;45399;-48
2023/12/12 04:00:37;;;;;;;;;13.67;8.33;;;;;12.31;100.00;100294.78;5077245;28;47013;-50
2023/12/12 04:03:02;;;;;;;;;9.67;5.00;;;;;12.33;100.00;100287.44;5077244;28;45373;-49
2023/12/12 04:05:27;;;;;;;;;13.33;11.00;;;;;12.34;100.00;100288.25;5077494;28;45396;-50
2023/12/12 04:07:53;;;;;;;;;8.67;8.33;;;;;12.35;100.00;100282.78;5077611;27;45743;-46
2023/12/12 04:10:18;;;;;;;;;13.33;9.00;;;;;12.34;100.00;100283.75;5077009;27;52438;-49
2023/12/12 04:12:43;;;;;;;;;12.00;9.00;;;;;12.38;100.00;100290.41;5077203;28;46182;-48
2023/12/12 04:15:09;;;;;;;;;15.00;9.00;;;;;12.42;100.00;100285.56;5093108;27;45769;-50
2023/12/12 04:17:35;;;;;;;;;15.67;11.67;;;;;12.33;100.00;100257.25;5077409;28;45277;-51
2023/12/12 04:20:00;;;;;;;;;9.00;6.33;;;;;12.42;100.00;100273.06;5076962;28;45906;-49
2023/12/12 04:22:25;;;;;;;;;8.67;7.67;;;;;12.43;100.00;100273.91;5076970;28;45359;-49
2023/12/12 04:24:51;;;;;;;;;8.67;8.00;;;;;12.44;100.00;100279.09;5077223;28;45350;-50
2023/12/12 04:27:16;;;;;;;;;8.33;8.33;;;;;12.44;100.00;100268.41;5077318;28;45222;-50
2023/12/12 04:29:41;;;;;;;;;13.00;11.67;;;;;12.44;100.00;100264.91;5075358;28;45405;-51
2023/12/12 04:32:07;;;;;;;;;9.00;9.00;;;;;12.43;100.00;100255.22;5077011;28;45391;-49
2023/12/12 04:34:33;;;;;;;;;6.33;6.33;;;;;12.47;100.00;100256.53;5076781;28;45345;-50
2023/12/12 04:37:02;;;;;;;;;11.67;9.67;;;;;12.43;100.00;100252.56;5077312;28;45393;-51
2023/12/12 04:39:28;;;;;;;;;9.33;8.00;;;;;12.48;100.00;100261.72;5076879;28;46139;-49
2023/12/12 04:41:53;;;;;;;;;14.33;11.00;;;;;12.41;100.00;100252.75;5076806;28;45441;-50
2023/12/12 04:44:18;;;;;;;;;7.67;7.67;;;;;12.48;100.00;100255.56;5081339;27;45228;-52
2023/12/12 04:46:44;;;;;;;;;9.33;8.00;;;;;12.48;100.00;100244.91;5083760;28;45295;-50
2023/12/12 04:49:09;;;;;;;;;11.33;8.33;;;;;12.47;100.00;100241.41;5083335;27;49486;-54
2023/12/12 04:51:34;;;;;;;;;8.33;8.00;;;;;12.47;100.00;100230.72;5083499;27;45368;-54
2023/12/12 04:54:00;;;;;;;;;11.00;8.33;;;;;12.51;100.00;100233.03;5083672;27;45347;-54
2023/12/12 04:56:25;;;;;;;;;9.33;9.33;;;;;12.53;100.00;100237.22;5083925;27;45427;-49
2023/12/12 04:58:51;;;;;;;;;10.67;9.33;;;;;12.59;100.00;100244.50;5083438;28;45264;-51
2023/12/12 05:01:16;;;;;;;;;8.00;7.00;;;;;12.57;100.00;100243.88;5083484;28;45304;-54
2023/12/12 05:03:42;;;;;;;;;14.33;10.67;;;;;12.60;100.00;100240.84;5083206;27;45347;-55
2023/12/12 05:06:08;;;;;;;;;10.00;7.33;;;;;12.62;100.00;100230.00;5083393;28;45496;-54
2023/12/12 05:08:34;;;;;;;;;14.33;11.67;;;;;12.62;100.00;100230.84;5082241;27;46494;-58
2023/12/12 05:10:59;;;;;;;;;10.33;9.00;;;;;12.63;100.00;100231.66;5099060;27;45492;-52
2023/12/12 05:13:24;;;;;;;;;8.33;7.67;;;;;12.62;100.00;100225.50;5083434;27;45389;-49
2023/12/12 05:15:50;;;;;;;;;10.67;10.33;;;;;12.63;100.00;100223.66;5083532;28;45419;-51
2023/12/12 05:18:15;;;;;;;;;11.00;10.00;;;;;12.63;100.00;100223.66;5082887;28;46096;-47
2023/12/12 05:20:41;;;;;;;;;13.00;9.67;;;;;12.63;100.00;100232.50;5082881;27;49692;-52
2023/12/12 05:23:06;;;;;;;;;11.00;9.00;;;;;12.66;100.00;100232.16;5082147;28;45363;-52
2023/12/12 05:25:31;;;;;;;;;12.00;12.00;;;;;12.68;100.00;100231.97;5083333;27;45380;-51
2023/12/12 05:27:56;;;;;;;;;15.33;13.67;;;;;12.66;100.00;100234.00;5082824;28;47073;-51
2023/12/12 05:30:22;;;;;;;;;10.00;6.33;;;;;12.64;100.00;100222.63;5082441;27;51717;-49
2023/12/12 05:32:47;;;;;;;;;12.67;11.00;;;;;12.66;100.00;100208.13;5083139;27;45464;-52
2023/12/12 05:35:12;;;;;;;;;18.33;11.67;;;;;12.69;100.00;100206.97;5082976;27;45477;-55
2023/12/12 05:37:38;;;;;;;;;21.00;11.00;;;;;12.69;100.00;100209.63;5082753;28;46264;-52
2023/12/12 05:40:06;;;;;;;;;15.33;14.00;;;;;12.65;100.00;100205.66;5082716;27;45347;-50
2023/12/12 05:42:32;;;;;;;;;13.00;10.00;;;;;12.65;100.00;100189.63;5081589;28;45472;-53
2023/12/12 05:44:57;;;;;;;;;13.00;12.33;;;;;12.61;100.00;100197.16;5082929;27;45326;-52
2023/12/12 05:47:23;;;;;;;;;10.00;10.00;;;;;12.63;100.00;100203.13;5082551;27;45314;-54
2023/12/12 05:49:48;;;;;;;;;15.00;12.67;;;;;12.65;100.00;100206.47;5082731;28;45315;-54
2023/12/12 05:52:14;;;;;;;;;13.00;12.00;;;;;12.67;100.00;100207.13;5082679;27;46079;-51
2023/12/12 05:54:40;;;;;;;;;18.00;14.00;;;;;12.68;100.00;100200.81;5082052;27;45514;-50
2023/12/12 05:57:05;;;;;;;;;15.33;12.33;;;;;12.65;100.00;100201.13;5078595;28;46915;-49
2023/12/12 05:59:31;;;;;;;;;15.00;11.33;;;;;12.69;100.00;100201.63;5079236;28;45304;-49
2023/12/12 06:01:56;;;;;;;;;8.33;8.00;;;;;12.68;100.00;100194.59;5079566;27;45357;-50
2023/12/12 06:04:22;;;;;;;;;12.33;10.00;;;;;12.74;100.00;100188.59;5079247;27;45376;-50
2023/12/12 06:06:47;;;;;;;;;13.00;13.00;;;;;12.68;100.00;100183.94;5079121;28;45408;-52
2023/12/12 06:09:13;;;;;;;;;13.33;12.00;;;;;12.70;100.00;100189.94;5079086;28;45433;-54
2023/12/12 06:11:39;;;;;;;;;15.67;11.33;;;;;12.71;100.00;100194.28;5079370;28;45460;-50
2023/12/12 06:14:05;;;;;;;;;13.00;10.00;;;;;12.72;100.00;100195.94;5079424;28;45354;-52
2023/12/12 06:16:31;;;;;;;;;13.00;13.00;;;;;12.64;100.00;100174.59;5078564;28;47104;-54
2023/12/12 06:18:57;;;;;;;;;16.00;14.67;;;;;12.76;100.00;100188.41;5078941;28;45390;-53
2023/12/12 06:21:22;;;;;;;;;18.33;12.00;;;;;12.69;100.00;100164.28;5078839;28;45366;-54
2023/12/12 06:23:47;;;;;;;;;15.00;14.00;;;;;12.80;100.00;100177.19;5079374;28;45378;-52
2023/12/12 06:26:14;;;;;;;;;18.33;14.33;;;;;12.82;100.00;100175.22;5078817;28;45954;-51
2023/12/12 06:28:39;;;;;;;;;12.00;10.33;;;;;12.82;100.00;100169.03;5078559;27;45348;-52
2023/12/12 06:31:05;;;;;;;;;10.33;10.33;;;;;12.76;100.00;100156.38;5078752;28;45390;-51
2023/12/12 06:33:30;;;;;;;;;13.33;11.33;;;;;12.85;100.00;100168.66;5079079;28;45472;-52
2023/12/12 06:35:56;;;;;;;;;14.67;10.00;;;;;12.85;100.00;100163.31;5078549;28;46528;-48
2023/12/12 06:38:22;;;;;;;;;16.33;13.33;;;;;12.82;100.00;100174.38;5078526;27;45438;-49
2023/12/12 06:40:47;;;;;;;;;13.00;13.00;;;;;12.80;100.00;100182.53;5078756;28;45383;-50
2023/12/12 06:43:13;;;;;;;;;18.00;12.00;;;;;12.84;100.00;100177.69;5078844;28;45465;-53
2023/12/12 06:45:38;;;;;;;;;12.33;10.00;;;;;12.87;100.00;100172.00;5078393;28;46081;-51
2023/12/12 06:48:03;;;;;;;;;14.67;9.67;;;;;12.86;100.00;100173.84;5078236;27;45351;-50
2023/12/12 06:50:29;;;;;;;;;14.67;10.67;;;;;12.86;100.00;100179.19;5078462;28;45350;-50
2023/12/12 06:52:54;;;;;;;;;12.00;9.00;;;;;12.87;100.00;100174.69;5078493;28;45402;-49
2023/12/12 06:55:20;;;;;;;;;16.00;10.33;;;;;12.78;100.00;100157.88;5077818;28;46000;-51
2023/12/12 06:57:45;;;;;;;;;18.33;13.00;;;;;12.83;100.00;100171.53;5078097;27;45250;-51
2023/12/12 07:00:12;;;;;;;;;14.00;10.67;;;;;12.83;100.00;100166.19;5077931;27;46002;-51
2023/12/12 07:02:37;;;;;;;;;16.67;11.00;;;;;12.82;100.00;100169.88;5078432;27;45153;-52
2023/12/12 07:05:04;;;;;;;;;10.33;10.33;;;;;12.88;100.00;100176.34;5077598;27;45435;-49
2023/12/12 07:07:30;;;;;;;;;16.33;12.33;;;;;12.88;100.00;100174.50;5076926;27;45377;-53
2023/12/12 07:09:55;;;;;;;;;21.33;12.33;;;;;12.91;100.00;100168.81;5077866;28;45432;-54
2023/12/12 07:12:21;;;;;;;;;12.00;12.00;;;;;12.92;100.00;100185.66;5077993;28;45418;-51
2023/12/12 07:14:46;;;;;;;;;9.67;7.00;;;;;12.81;100.00;100172.69;5077750;27;46476;-51
2023/12/12 07:17:12;;;;;;;;;16.00;12.67;;;;;12.90;100.00;100182.34;5077556;27;45380;-52
2023/12/12 07:19:37;;;;;;;;;17.67;14.00;;;;;12.92;100.00;100193.66;5059813;28;45509;-51
2023/12/12 07:22:03;;;;;;;;;9.33;9.00;;;;;12.94;100.00;100189.00;5078274;27;45476;-52
2023/12/12 07:24:28;;;;;;;;;21.33;12.33;;;;;12.94;100.00;100184.50;5077756;28;45513;-50
2023/12/12 07:26:53;;;;;;;;;25.00;19.33;;;;;12.96;100.00;100187.78;5059469;28;45754;-51
2023/12/12 07:29:19;;;;;;;;;14.67;13.00;;;;;13.00;100.00;100185.63;5070131;28;45477;-52
2023/12/12 07:31:46;;;;;;;;;17.67;14.00;;;;;12.94;100.00;100172.97;5078169;28;45383;-52
2023/12/12 07:34:12;;;;;;;;;17.00;14.00;;;;;13.07;100.00;100183.91;5077252;28;45375;-49
2023/12/12 07:36:38;;;;;;;;;16.67;14.00;;;;;13.07;100.00;100175.91;5077491;27;45470;-52
2023/12/12 07:39:05;;;;;;;;;13.67;10.33;;;;;13.10;100.00;100177.38;5077554;28;45374;-50
2023/12/12 07:41:34;;;;;;;;;14.33;8.67;;;;;13.08;100.00;100179.41;5077825;27;45334;-52
2023/12/12 07:43:59;;;;;;;;;17.67;15.00;;;;;13.09;100.00;100173.03;5077491;28;45377;-47
2023/12/12 07:46:25;;;;;;;;;15.67;11.33;;;;;13.13;100.00;100177.03;5077005;27;45468;-53
2023/12/12 07:48:50;;;;;;;;;16.67;9.00;;;;;13.14;100.00;100174.16;5077627;28;45264;-50
2023/12/12 07:51:15;;;;;;;;;9.00;7.00;;;;;13.13;100.00;100177.84;5076008;28;45691;-50
2023/12/12 07:53:41;;;;;;;;;7.67;4.00;;;;;13.18;100.00;100178.13;5077167;28;45476;-50
2023/12/12 07:56:07;;;;;;;;;12.00;8.00;;;;;13.18;100.00;100175.47;5077000;28;45455;-50
2023/12/12 07:58:32;;;;;;;;;7.67;6.67;;;;;13.19;100.00;100185.16;5076735;28;45489;-53
2023/12/12 08:00:58;;;;;;;;;9.33;7.67;;;;;13.19;100.00;100181.66;5076901;28;45462;-54
2023/12/12 08:03:23;;;;;;;;;9.67;8.00;;;;;13.15;100.00;100175.03;5076256;28;45915;-54
2023/12/12 08:05:49;;;;;;;;;7.67;7.67;;;;;13.16;100.00;100172.16;5076678;28;45276;-53
2023/12/12 08:08:14;;;;;;;;;7.33;6.67;;;;;13.24;100.00;100182.00;5076440;28;45348;-54
2023/12/12 08:10:40;;;;;;;;;9.33;5.00;;;;;13.16;100.00;100176.69;5076911;28;46164;-53
2023/12/12 08:13:05;;;;;;;;;7.33;4.67;;;;;13.28;100.00;100185.16;5077189;28;45371;-48
2023/12/12 08:15:31;;;;;;;;;10.33;9.00;;;;;13.29;100.00;100176.13;5076386;28;45379;-54
2023/12/12 08:17:56;;;;;;;;;8.33;5.00;;;;;13.31;100.00;100164.22;5076597;28;45309;-52
2023/12/12 08:20:22;;;;;;;;;4.00;3.67;;;;;13.30;100.00;100161.75;5076873;28;45312;-51
2023/12/12 08:22:47;;;;;;;;;5.00;5.00;;;;;13.34;100.00;100163.03;5076978;28;46243;-53
2023/12/12 08:25:12;;;;;;;;;8.00;4.00;;;;;13.36;100.00;100155.69;5076944;28;45454;-52
2023/12/12 08:27:38;;;;;;;;;4.00;4.00;;;;;13.33;100.00;100142.69;5077005;28;45483;-52
2023/12/12 08:30:04;;;;;;;;;5.67;4.00;;;;;13.39;100.00;100149.97;5076775;28;45568;-54
2023/12/12 08:32:30;;;;;;;;;4.67;3.00;;;;;13.43;100.00;100154.78;5076750;28;47089;-53
2023/12/12 08:34:55;;;;;;;;;2.33;2.33;;;;;13.47;100.00;100155.25;5076792;28;45653;-53
2023/12/12 08:37:21;;;;;;;;;4.00;4.00;;;;;13.43;100.00;100145.94;5076798;28;45220;-52
2023/12/12 08:39:46;;;;;;;;;5.33;3.33;;;;;13.41;100.00;100148.81;5077035;28;45289;-54
2023/12/12 08:42:13;;;;;;;;;2.33;2.33;;;;;13.50;100.00;100162.09;5076535;28;46667;-51
2023/12/12 08:44:40;;;;;;;;;5.67;4.00;;;;;13.52;100.00;100163.56;5076739;28;45312;-51
2023/12/12 08:47:06;;;;;;;;;3.00;3.00;;;;;13.56;100.00;100167.53;5076733;28;45520;-50
2023/12/12 08:49:34;;;;;;;;;5.67;2.33;;;;;13.56;100.00;100166.69;5076245;28;45551;-51
2023/12/12 08:51:59;;;;;;;;;3.00;3.00;;;;;13.61;100.00;100169.66;5076161;28;47215;-50
2023/12/12 08:54:25;;;;;;;;;5.00;2.33;;;;;13.37;100.00;100133.31;5076297;28;45196;-52
2023/12/12 08:56:52;;;;;;;;;3.00;3.00;;;;;13.70;100.00;100179.28;5075847;28;45394;-51
2023/12/12 08:59:21;;;;;;;;;1.00;1.00;;;;;13.71;100.00;100176.44;5076773;28;45440;-51
2023/12/12 09:01:46;;;;;;;;;3.33;1.00;;;;;13.76;100.00;100193.78;5076299;28;47269;-50
2023/12/12 09:04:14;;;;;;;;;2.00;2.00;;;;;13.80;100.00;100187.88;5076198;28;45481;-53
2023/12/12 09:06:40;;;;;;;;;5.00;2.33;;;;;13.85;100.00;100182.81;5076277;28;45472;-49
2023/12/12 09:09:06;;;;;;;;;4.00;2.33;;;;;13.87;99.69;100185.31;5076459;28;45369;-46
2023/12/12 09:11:33;;;;;;;;;2.00;2.00;;;;;13.94;99.50;100189.72;5076067;28;46582;-51
2023/12/12 09:13:58;;;;;;;;;3.33;1.00;;;;;14.01;99.42;100183.69;5076285;28;45370;-49
2023/12/12 09:16:23;;;;;;;;;2.00;2.00;;;;;14.07;98.52;100183.75;5076175;28;45407;-51
2023/12/12 09:18:50;;;;;;;;;1.00;0.67;;;;;14.08;98.00;100179.25;5076679;28;45469;-53
2023/12/12 09:21:16;;;;;;;;;1.33;1.33;;;;;14.03;97.62;100176.28;5072093;28;45916;-52
2023/12/12 09:23:41;;;;;;;;;2.00;2.00;;;;;14.05;97.85;100188.47;5074898;28;45444;-50
2023/12/12 09:26:12;;;;;;;;;4.00;2.00;;;;;14.02;97.79;100188.81;5074729;28;45421;-49
2023/12/12 09:28:42;;;;;;;;;4.00;2.33;;;;;14.01;97.98;100181.00;5074953;28;45512;-53
2023/12/12 09:31:08;;;;;;;;;3.33;3.00;;;;;14.03;97.72;100181.63;5076393;28;46174;-51
2023/12/12 09:33:37;;;;;;;;;4.00;3.67;;;;;14.05;97.44;100176.94;5079094;28;45688;-53
2023/12/12 09:36:04;;;;;;;;;1.67;1.67;;;;;14.08;97.43;100176.59;5079184;28;45249;-48
2023/12/12 09:38:29;;;;;;;;;1.00;1.00;;;;;14.08;97.29;100173.91;5079231;28;45394;-53
2023/12/12 09:40:58;;;;;;;;;2.00;2.00;;;;;14.05;97.30;100176.94;5078865;28;46265;-53
2023/12/12 09:43:26;;;;;;;;;1.00;1.00;;;;;13.93;97.57;100160.50;5079003;28;45327;-52
2023/12/12 09:45:57;;;;;;;;;1.33;1.00;;;;;14.02;98.13;100183.47;5079010;28;45283;-53
2023/12/12 09:48:23;;;;;;;;;1.00;1.00;;;;;13.99;98.75;100175.84;5078900;27;45470;-52
2023/12/12 09:50:49;;;;;;;;;1.33;1.33;;;;;13.98;98.89;100171.50;5070830;28;46046;-53
2023/12/12 09:53:16;;;;;;;;;3.00;1.00;;;;;14.07;98.98;100167.72;5058484;28;45504;-51
2023/12/12 09:55:43;;;;;;;;;0.00;0.00;;;;;14.26;98.46;100162.84;5058491;28;45426;-52
2023/12/12 09:58:09;;;;;;;;;2.00;2.00;;;;;14.25;97.48;100170.03;5058628;28;45372;-49
2023/12/12 10:00:34;;;;;;;;;1.00;1.00;;;;;14.23;97.50;100164.88;5058361;28;46112;-53
2023/12/12 10:03:04;;;;;;;;;4.00;1.00;;;;;14.24;97.30;100165.69;5058077;28;45419;-53
2023/12/12 10:05:32;;;;;;;;;2.00;2.00;;;;;14.22;97.31;100168.56;5070589;28;45508;-55
2023/12/12 10:08:00;;;;;;;;;2.00;2.00;;;;;14.21;96.50;100166.91;5078465;28;45247;-54
2023/12/12 10:10:25;;;;;;;;;2.33;1.33;;;;;14.21;96.43;100166.06;5078380;28;45531;-53
2023/12/12 10:12:50;;;;;;;;;2.00;1.00;;;;;14.29;95.89;100166.00;5078450;28;45248;-54
2023/12/12 10:15:25;;;;;;;;;1.67;1.00;;;;;14.32;95.15;100160.25;5078631;28;45387;-54
2023/12/12 10:18:00;;;;;;;;;1.00;1.00;;;;;14.44;94.19;100161.44;5078407;28;45434;-53
2023/12/12 10:20:27;;;;;;;;;0.00;0.00;;;;;14.68;92.84;100156.84;5078586;28;46011;-56
2023/12/12 10:23:00;;;;;;;;;2.00;1.00;;;;;14.93;90.60;100151.97;5077888;28;45527;-55
2023/12/12 10:25:28;;;;;;;;;2.33;0.33;;;;;15.12;88.85;100145.16;5078235;28;45355;-55
2023/12/12 10:27:53;;;;;;;;;1.00;1.00;;;;;15.20;87.59;100150.38;5078223;28;45387;-53
2023/12/12 10:30:20;;;;;;;;;1.00;1.00;;;;;15.26;86.87;100140.78;5077832;28;46232;-53
2023/12/12 10:32:51;;;;;;;;;2.00;0.33;;;;;15.32;86.92;100145.34;5078009;28;45473;-51
2023/12/12 10:35:21;;;;;;;;;0.33;0.33;;;;;15.36;85.56;100133.22;5095553;27;45642;-53
2023/12/12 10:37:47;;;;;;;;;1.00;0.00;;;;;15.40;84.47;100134.50;5098470;27;45331;-53
2023/12/12 10:40:13;;;;;;;;;1.67;1.67;;;;;15.57;83.37;100124.34;5097894;27;46248;-52
2023/12/12 10:42:40;;;;;;;;;0.00;0.00;;;;;15.61;83.47;100130.97;5097594;27;45457;-53
2023/12/12 10:45:08;;;;;;;;;1.00;1.00;;;;;15.61;82.68;100133.66;5098249;27;45426;-51
2023/12/12 10:47:39;;;;;;;;;1.33;1.00;;;;;15.55;83.05;100131.72;5098349;27;45532;-53
2023/12/12 10:50:08;;;;;;;;;1.67;1.67;;;;;15.50;82.75;100140.34;5098081;27;45337;-54
2023/12/12 10:52:35;;;;;;;;;1.00;1.00;;;;;15.41;83.23;100128.09;5098119;27;45324;-51
2023/12/12 10:55:02;;;;;;;;;3.00;1.00;;;;;15.28;82.52;100126.16;5098285;27;45371;-53
2023/12/12 10:57:29;;;;;;;;;0.67;0.67;;;;;15.16;83.07;100133.03;5098566;27;45511;-51
2023/12/12 10:59:56;;;;;;;;;2.00;1.00;;;;;15.07;83.85;100135.00;5097588;27;46144;-54
2023/12/12 11:02:23;;;;;;;;;2.67;1.00;;;;;14.97;83.76;100123.78;5098331;27;45416;-55